Culebra, VI

10:21 AM AST on January 16, 2017 (GMT -0400)
King | | Change Station

Elev 23 ft 18.34 °N, 64.97 °W | Updated 28 minutes ago

Clear
Clear
81 °F
Feels Like 83 °F
N
18
Wind Variable Wind from ENE
Gusts 24 mph

Today
High -- | Low -- °F
--% Chance of Precip.
Yesterday
High -- | Low -- °F
Precip. -- in
Pressure 30.09 in
Visibility 10.0 miles
Clouds Few 3900 ft
Heat Index 83 °F
Dew Point 65 °F
Humidity 58%
Rainfall 0.02 in
Snow Depth Not available.
6:54 AM 6:04 PM
Waning Gibbous, 81% visible
METAR TIST 161353Z 07016G21KT 10SM FEW039 27/18 A3008 RMK AO2 PK WND 08029/1336 SLP188 T02720183 $
Pressure 30.09 in
Visibility 10.0 miles
Clouds Few 3900 ft
Heat Index 83 °F
Dew Point 65 °F
Humidity 58%
Rainfall 0.02 in
Snow Depth Not available.
6:54 AM 6:04 PM
Waning Gibbous, 81% visible
METAR TIST 161353Z 07016G21KT 10SM FEW039 27/18 A3008 RMK AO2 PK WND 08029/1336 SLP188 T02720183 $

Get Your Daily Forecast Email!

Thanks for signing up!

Be on the lookout for a verification email in your inbox.

You'll start receiving the daily forecast at 8 AM.

×

10-Day Weather Forecast

Almanac

Astronomy

Jan. 16, 2017 Rise Set
Actual Time
Civil Twilight
Nautical Twilight
Astronomical Twilight
Moon
Length of Visible Light
Length of Day
Tomorrow will be .
, % of the Moon is Illuminated

Today's Extremes

State Highs State Lows

Community

WunderPhotos

Upload Photos

1,962,540 photos uploaded!

WunderBlog® & News

Nearby

Air Quality

  Air Quality AQ Index Pollutant
Not available.

Snow Depth

Station Depth Elevation

Earthquake Activity

City Distance Mag. Time & Date
Minimum magnitude displayed is 2.5.

Coastal Water Temperatures

Place Temperature

Stations

Nearby Weather Stations

Station Location Temp. Windchill Dew Point Humidity Wind Precip. Elev Updated Type
                   

Watches & Warnings

Coastal Hazard Statement
Issued: 4:58 AM AST Jan. 16, 2017 – National Weather Service

... High rip current risk now in effect through Tuesday
afternoon...

* breaking waves... between 6 to 8 feet and decreasing.

* Location... north coast beaches of St Thomas... Vieques and the
Aguada and Rincon beaches.

* Timing... high rip current risk through Tuesday afternoon.

* Impacts... strong currents that can carry even the strongest
swimmers out to sea.

Precautionary/preparedness actions...

There is a high risk of rip currents.





Small Craft Advisory
Issued: 10:08 AM AST Jan. 16, 2017 – National Weather Service

... Small Craft Advisory remains in effect until 2 am AST
Tuesday...

* winds... northeast between 15 to 20 knots with occasionally
higher gusts.

* Waves/seas... between 5 to 7 feet with occasional seas up to 9 feet.

Precautionary/preparedness actions...

A Small Craft Advisory means that wind speeds of 21 to 33 knots
or seas of 7 feet or greater are expected to produce hazardous
wave conditions to small craft. Inexperienced mariners...
especially those operating smaller vessels should avoid
navigating in these conditions.